Time;durP1;ratioP1;P1;durP2;ratioP2;P2;SDS_P1;SDS_P2;PMS_P1;PMS_P2;Temp;Humidity;BMP_temperature;BMP_pressure;BME280_temperature;BME280_humidity;BME280_pressure;Samples;Min_cycle;Max_cycle;Signal;HPM_P1;HPM_P2
2021/05/24 00:02:02;;;;;;;2.30;2.10;;;;;;;19.39;54.17;99124.53;5110369;28;20019;-78
2021/05/24 00:04:28;;;;;;;3.08;1.92;;;;;;;19.39;54.56;99122.59;5110189;28;20029;-78
2021/05/24 00:06:53;;;;;;;2.42;2.10;;;;;;;19.36;54.25;99120.56;5110466;28;20215;-78
2021/05/24 00:09:18;;;;;;;4.10;2.58;;;;;;;19.32;54.59;99117.72;5110206;28;20034;-78
2021/05/24 00:11:44;;;;;;;2.40;2.20;;;;;;;19.38;54.62;99133.78;5110475;28;20458;-78
2021/05/24 00:14:12;;;;;;;3.42;3.13;;;;;;;19.38;54.77;99136.50;5111949;28;20015;-78
2021/05/24 00:16:38;;;;;;;2.53;2.33;;;;;;;19.36;54.64;99139.53;5111731;28;20035;-78
2021/05/24 00:19:03;;;;;;;11.90;3.20;;;;;;;19.32;54.74;99128.56;5120548;28;20039;-78
2021/05/24 00:21:29;;;;;;;9.50;3.03;;;;;;;19.35;54.86;99136.03;5125350;28;20084;-78
2021/05/24 00:23:54;;;;;;;3.53;2.75;;;;;;;19.33;54.87;99137.47;5127000;28;20058;-78
2021/05/24 00:26:20;;;;;;;2.50;2.30;;;;;;;19.28;55.23;99138.47;5124192;28;20071;-78
2021/05/24 00:28:45;;;;;;;4.47;2.63;;;;;;;19.24;55.12;99131.31;5120686;28;20451;-77
2021/05/24 00:31:11;;;;;;;2.80;2.60;;;;;;;19.23;55.35;99146.03;5118545;28;20016;-78
2021/05/24 00:33:36;;;;;;;2.80;2.25;;;;;;;19.17;55.78;99140.78;5116862;28;20026;-78
2021/05/24 00:36:02;;;;;;;3.17;2.63;;;;;;;19.13;55.68;99133.69;5116960;28;20153;-78
2021/05/24 00:38:28;;;;;;;10.27;3.25;;;;;;;19.12;55.79;99134.78;5117237;28;20058;-78
2021/05/24 00:40:53;;;;;;;3.42;2.40;;;;;;;19.09;56.03;99135.44;5116754;28;20019;-79
2021/05/24 00:43:19;;;;;;;2.95;2.65;;;;;;;19.06;56.21;99136.91;5112999;28;20103;-78
2021/05/24 00:45:44;;;;;;;2.90;2.53;;;;;;;19.05;56.46;99143.44;5112430;28;20074;-78
2021/05/24 00:48:10;;;;;;;5.05;2.78;;;;;;;18.97;56.68;99139.69;5110556;28;20023;-78
2021/05/24 00:50:38;;;;;;;4.00;2.85;;;;;;;18.95;56.84;99139.19;5110229;28;20016;-78
2021/05/24 00:53:03;;;;;;;3.37;3.07;;;;;;;18.94;56.70;99137.63;5110156;28;20031;-78
2021/05/24 00:55:29;;;;;;;3.15;2.80;;;;;;;18.92;56.83;99139.06;5109729;28;20028;-79
2021/05/24 00:57:55;;;;;;;3.75;2.45;;;;;;;18.88;57.07;99134.28;5113138;28;20047;-78
2021/05/24 01:00:30;;;;;;;3.00;2.75;;;;;;;18.85;56.87;99132.22;5113972;28;20424;-78
2021/05/24 01:02:57;;;;;;;3.58;2.88;;;;;;;18.82;57.17;99132.91;5113907;28;20043;-78
2021/05/24 01:05:24;;;;;;;3.38;3.08;;;;;;;18.83;57.27;99128.25;5115212;28;20020;-78
2021/05/24 01:07:50;;;;;;;2.30;2.10;;;;;;;18.79;57.26;99136.25;5114815;28;20436;-78
2021/05/24 01:10:15;;;;;;;4.93;2.60;;;;;;;18.80;57.57;99134.34;5113708;28;20019;-78
2021/05/24 01:12:41;;;;;;;2.85;2.63;;;;;;;18.75;57.47;99142.66;5113228;28;20028;-78
2021/05/24 01:15:07;;;;;;;3.80;2.75;;;;;;;18.72;57.98;99133.28;5115007;28;20020;-78
2021/05/24 01:17:32;;;;;;;2.78;2.50;;;;;;;18.71;57.48;99137.91;5113069;28;20020;-78
2021/05/24 01:19:58;;;;;;;3.35;3.05;;;;;;;18.66;57.74;99135.41;5114981;28;20038;-78
2021/05/24 01:22:24;;;;;;;3.50;2.42;;;;;;;18.63;58.08;99121.72;5114584;28;20028;-78
2021/05/24 01:24:49;;;;;;;5.32;2.50;;;;;;;18.59;58.15;99135.13;5113375;28;20026;-78
2021/05/24 01:27:15;;;;;;;3.90;3.10;;;;;;;18.57;58.20;99142.75;5112937;28;20070;-78
2021/05/24 01:29:42;;;;;;;2.83;2.20;;;;;;;18.47;58.97;99133.09;5112914;28;20081;-78
2021/05/24 01:32:07;;;;;;;5.93;2.72;;;;;;;18.43;58.82;99112.41;5113472;28;20106;-78
2021/05/24 01:34:34;;;;;;;3.50;2.25;;;;;;;18.40;59.04;99128.19;5116382;28;20035;-78
2021/05/24 01:37:01;;;;;;;4.53;2.72;;;;;;;18.35;59.01;99125.66;5121220;28;20050;-78
2021/05/24 01:39:27;;;;;;;5.65;2.50;;;;;;;18.34;59.03;99126.78;5123602;28;20030;-78
2021/05/24 01:41:53;;;;;;;2.97;2.75;;;;;;;18.32;59.13;99117.41;5124908;28;20011;-78
2021/05/24 01:44:31;;;;;;;6.10;2.58;;;;;;;18.31;58.83;99121.22;5122397;28;20072;-78
2021/05/24 01:46:56;;;;;;;4.30;2.60;;;;;;;18.30;59.11;99128.56;5118153;28;20106;-78
2021/05/24 01:49:22;;;;;;;4.75;2.90;;;;;;;18.31;58.97;99123.94;5116662;28;20463;-78
2021/05/24 01:51:47;;;;;;;3.65;2.90;;;;;;;18.32;59.12;99123.63;5115149;28;20027;-78
2021/05/24 01:54:14;;;;;;;2.60;2.40;;;;;;;18.35;58.67;99125.66;5115290;28;20061;-78
2021/05/24 01:56:41;;;;;;;2.67;2.40;;;;;;;18.39;58.61;99125.81;5113190;28;20379;-78
2021/05/24 01:59:07;;;;;;;4.65;3.05;;;;;;;18.42;58.55;99132.47;5112889;28;20043;-78
2021/05/24 02:01:32;;;;;;;2.88;2.67;;;;;;;18.47;58.57;99135.00;5112385;28;20062;-78
2021/05/24 02:03:58;;;;;;;4.75;2.22;;;;;;;18.49;58.29;99136.28;5114119;28;20024;-78
2021/05/24 02:06:23;;;;;;;3.35;2.08;;;;;;;18.50;58.39;99127.00;5112561;28;20057;-79
2021/05/24 02:08:49;;;;;;;3.10;2.67;;;;;;;18.54;58.24;99124.44;5111276;28;20431;-78
2021/05/24 02:11:15;;;;;;;2.80;2.60;;;;;;;18.53;58.10;99131.00;5112237;28;20016;-79
2021/05/24 02:13:46;;;;;;;3.08;2.78;;;;;;;18.56;58.19;99135.75;5113005;28;20364;-79
2021/05/24 02:16:11;;;;;;;5.55;2.60;;;;;;;18.58;57.98;99136.22;5112188;28;20402;-76
2021/05/24 02:18:37;;;;;;;3.85;2.80;;;;;;;18.60;57.98;99141.31;5111726;28;20020;-77
2021/05/24 02:21:03;;;;;;;3.58;2.67;;;;;;;18.58;58.17;99143.53;5112046;28;20443;-77
2021/05/24 02:23:29;;;;;;;3.35;2.65;;;;;;;18.58;58.30;99138.94;5111646;28;20043;-77
2021/05/24 02:25:55;;;;;;;4.55;2.58;;;;;;;18.59;58.21;99137.00;5111761;28;20116;-77
2021/05/24 02:28:21;;;;;;;3.17;2.88;;;;;;;18.56;58.34;99128.41;5111692;28;20089;-77
2021/05/24 02:30:47;;;;;;;4.97;2.75;;;;;;;18.61;58.63;99145.63;5113514;28;20027;-77
2021/05/24 02:33:12;;;;;;;5.75;4.05;;;;;;;18.60;58.80;99154.84;5111699;28;20022;-77
2021/05/24 02:35:38;;;;;;;5.97;3.50;;;;;;;18.58;58.47;99157.91;5111441;28;20023;-77
2021/05/24 02:38:04;;;;;;;4.35;3.75;;;;;;;18.60;58.66;99155.63;5111638;28;20104;-77
2021/05/24 02:40:29;;;;;;;2.97;2.67;;;;;;;18.65;58.70;99160.06;5111405;28;20390;-77
2021/05/24 02:42:55;;;;;;;5.38;3.28;;;;;;;18.65;58.87;99149.25;5111310;28;20111;-77
2021/05/24 02:45:21;;;;;;;2.88;2.67;;;;;;;18.65;58.91;99141.94;5111505;28;20462;-77
2021/05/24 02:47:49;;;;;;;3.33;2.67;;;;;;;18.61;58.88;99142.91;5111336;28;20031;-77
2021/05/24 02:50:23;;;;;;;3.78;2.67;;;;;;;18.64;59.19;99159.28;5111756;28;20047;-77
2021/05/24 02:52:49;;;;;;;4.95;3.05;;;;;;;18.60;59.31;99160.28;5111730;28;20027;-77
2021/05/24 02:55:15;;;;;;;3.75;2.97;;;;;;;18.58;59.17;99162.50;5113037;28;20458;-77
2021/05/24 02:57:41;;;;;;;6.10;3.13;;;;;;;18.54;59.21;99159.66;5111154;28;20051;-77
2021/05/24 03:00:07;;;;;;;4.15;3.20;;;;;;;18.57;59.27;99175.25;5112379;28;20467;-77
2021/05/24 03:02:34;;;;;;;3.50;3.15;;;;;;;18.55;59.03;99182.91;5110942;28;20412;-77
2021/05/24 03:04:59;;;;;;;6.80;3.25;;;;;;;18.57;58.79;99180.69;5111211;28;20027;-77
2021/05/24 03:07:25;;;;;;;3.00;2.70;;;;;;;18.63;58.98;99182.09;5111127;28;20464;-77
2021/05/24 03:09:50;;;;;;;3.33;3.10;;;;;;;18.75;58.74;99196.84;5110737;28;20450;-77
2021/05/24 03:12:16;;;;;;;3.28;2.97;;;;;;;18.81;58.24;99187.41;5111137;28;20466;-76
2021/05/24 03:14:41;;;;;;;5.50;3.53;;;;;;;18.98;58.18;99189.25;5110851;28;20027;-77
2021/05/24 03:17:07;;;;;;;3.50;2.83;;;;;;;19.16;57.66;99195.34;5110935;28;20114;-77
2021/05/24 03:19:32;;;;;;;4.40;2.65;;;;;;;19.33;57.07;99195.25;5110640;28;20078;-77
2021/05/24 03:21:58;;;;;;;3.35;2.75;;;;;;;19.54;56.71;99194.41;5110698;28;20497;-77
2021/05/24 03:24:23;;;;;;;3.92;2.90;;;;;;;19.76;55.83;99201.41;5110876;28;20437;-77
2021/05/24 03:26:49;;;;;;;4.68;3.33;;;;;;;19.99;55.45;99206.47;5110318;28;20036;-77
2021/05/24 03:29:14;;;;;;;5.57;3.47;;;;;;;20.17;55.26;99214.47;5110772;28;20023;-78
2021/05/24 03:31:40;;;;;;;8.43;5.32;;;;;;;20.38;55.10;99211.66;5110003;28;20367;-78
2021/05/24 03:34:05;;;;;;;7.47;5.57;;;;;;;20.66;54.41;99213.72;5110651;28;20027;-77
2021/05/24 03:36:31;;;;;;;5.03;4.30;;;;;;;20.95;53.76;99213.50;5110436;28;20027;-77
2021/05/24 03:38:56;;;;;;;4.30;3.10;;;;;;;21.20;53.25;99220.81;5110619;28;20382;-78
2021/05/24 03:41:22;;;;;;;5.93;3.05;;;;;;;21.50;52.98;99223.25;5110326;28;20027;-78
2021/05/24 03:43:48;;;;;;;3.88;3.40;;;;;;;21.85;52.20;99228.94;5110209;28;20077;-79
2021/05/24 03:46:14;;;;;;;2.95;2.72;;;;;;;22.20;51.43;99224.78;5110366;28;20023;-78
2021/05/24 03:48:39;;;;;;;4.25;2.83;;;;;;;22.63;50.47;99227.81;5110119;28;20027;-77
2021/05/24 03:51:06;;;;;;;3.50;3.13;;;;;;;23.04;49.29;99236.56;5110459;28;20118;-78
2021/05/24 03:53:32;;;;;;;3.85;2.72;;;;;;;23.48;48.42;99236.34;5110215;28;20347;-78
2021/05/24 03:55:57;;;;;;;7.22;3.03;;;;;;;23.91;47.49;99230.97;5110489;28;20024;-78
2021/05/24 03:58:23;;;;;;;6.32;3.10;;;;;;;24.31;46.05;99234.44;5110320;28;20096;-78
2021/05/24 04:00:48;;;;;;;5.30;2.55;;;;;;;24.72;45.45;99247.63;5110011;28;20023;-78
2021/05/24 04:03:13;;;;;;;5.22;3.60;;;;;;;25.17;44.90;99245.16;5110537;28;20110;-78
2021/05/24 04:05:40;;;;;;;3.63;3.33;;;;;;;25.60;43.81;99251.22;5110035;28;20080;-78
2021/05/24 04:08:07;;;;;;;5.35;3.20;;;;;;;26.01;42.83;99253.25;5110267;28;20069;-77
2021/05/24 04:10:36;;;;;;;6.97;3.15;;;;;;;26.41;41.68;99259.94;5111287;28;20527;-78
2021/05/24 04:13:03;;;;;;;5.10;3.15;;;;;;;26.71;41.50;99271.94;5111454;28;20462;-78
2021/05/24 04:15:28;;;;;;;3.60;2.90;;;;;;;27.09;40.54;99270.66;5110185;28;20389;-77
2021/05/24 04:17:57;;;;;;;5.50;2.60;;;;;;;27.45;39.61;99273.66;5111647;28;20023;-78
2021/05/24 04:20:24;;;;;;;2.80;2.60;;;;;;;27.77;38.39;99273.00;5110302;28;20030;-79
2021/05/24 04:22:50;;;;;;;3.88;2.88;;;;;;;28.02;38.50;99268.75;5109876;28;20019;-78
2021/05/24 04:25:16;;;;;;;9.07;4.20;;;;;;;28.26;38.26;99281.03;5110101;28;20097;-78
2021/05/24 04:27:42;;;;;;;3.78;2.47;;;;;;;28.50;37.60;99279.44;5110864;28;20495;-78
2021/05/24 04:30:10;;;;;;;2.95;2.67;;;;;;;28.47;37.22;99293.22;5109896;28;20065;-78
2021/05/24 04:32:36;;;;;;;5.55;3.17;;;;;;;28.65;37.33;99290.47;5112349;28;20428;-78
2021/05/24 04:35:02;;;;;;;2.92;2.72;;;;;;;28.82;36.34;99291.66;5114012;28;20398;-78
2021/05/24 04:37:28;;;;;;;4.93;2.58;;;;;;;28.80;36.20;99289.31;5114022;28;20062;-78
2021/05/24 04:39:53;;;;;;;3.33;2.40;;;;;;;28.90;35.73;99304.25;5113661;28;20489;-78
2021/05/24 04:42:21;;;;;;;3.28;3.00;;;;;;;29.12;35.79;99298.72;5114888;28;20019;-78
2021/05/24 04:44:46;;;;;;;4.93;3.72;;;;;;;29.20;35.58;99305.81;5113777;28;20023;-78
2021/05/24 04:47:11;;;;;;;3.92;2.78;;;;;;;29.32;35.36;99312.88;5113874;28;20077;-78
2021/05/24 04:49:37;;;;;;;2.30;2.10;;;;;;;29.47;34.26;99308.13;5113484;28;20024;-78
2021/05/24 04:52:03;;;;;;;2.40;2.20;;;;;;;29.53;34.58;99312.81;5113780;28;20020;-77
2021/05/24 04:54:28;;;;;;;3.00;2.22;;;;;;;29.70;34.59;99321.44;5113611;28;20469;-78
2021/05/24 04:56:54;;;;;;;3.03;2.55;;;;;;;29.55;34.09;99324.25;5114736;28;20030;-78
2021/05/24 04:59:19;;;;;;;3.55;2.60;;;;;;;29.54;34.30;99322.66;5113546;28;20024;-79
2021/05/24 05:01:47;;;;;;;4.15;2.63;;;;;;;29.50;34.61;99318.34;5113308;28;20542;-78
2021/05/24 05:04:13;;;;;;;2.65;2.33;;;;;;;29.51;34.35;99317.94;5113581;28;20058;-77
2021/05/24 05:06:38;;;;;;;3.47;2.70;;;;;;;29.52;34.24;99329.75;5113257;28;20102;-78
2021/05/24 05:09:05;;;;;;;3.17;2.95;;;;;;;29.47;34.56;99330.94;5113366;28;20034;-79
2021/05/24 05:11:30;;;;;;;2.33;2.10;;;;;;;29.33;33.69;99331.78;5113487;28;20030;-77
2021/05/24 05:13:55;;;;;;;3.28;2.30;;;;;;;29.24;34.16;99332.13;5113235;28;20394;-79
2021/05/24 05:16:21;;;;;;;2.40;2.20;;;;;;;29.19;34.46;99329.00;5112944;28;20084;-78
2021/05/24 05:18:46;;;;;;;2.83;2.42;;;;;;;29.29;33.98;99328.19;5114097;28;20160;-80
2021/05/24 05:21:12;;;;;;;2.30;2.10;;;;;;;29.35;33.40;99329.41;5114587;28;20088;-79
2021/05/24 05:23:37;;;;;;;2.65;1.90;;;;;;;29.33;33.81;99337.28;5112919;28;20680;-80
2021/05/24 05:26:03;;;;;;;2.58;2.38;;;;;;;29.43;33.71;99338.44;5112964;28;20053;-79
2021/05/24 05:28:28;;;;;;;3.10;2.75;;;;;;;29.60;33.55;99342.34;5113045;28;20054;-79
2021/05/24 05:30:54;;;;;;;2.08;1.77;;;;;;;29.73;33.51;99342.66;5112861;28;20067;-80
2021/05/24 05:33:19;;;;;;;4.65;3.95;;;;;;;29.77;32.74;99343.47;5112947;28;20043;-80
2021/05/24 05:35:48;;;;;;;2.28;2.08;;;;;;;29.49;33.35;99349.81;5112598;28;20114;-80
2021/05/24 05:38:14;;;;;;;2.35;2.08;;;;;;;29.36;33.64;99355.75;5112536;28;20539;-80
2021/05/24 05:40:41;;;;;;;1.88;1.77;;;;;;;29.03;34.06;99351.44;5112542;28;20489;-79
2021/05/24 05:43:06;;;;;;;4.40;2.28;;;;;;;28.88;34.58;99351.44;5111482;28;20023;-80
2021/05/24 05:45:32;;;;;;;2.03;1.92;;;;;;;28.94;34.88;99354.56;5112628;28;20031;-80
2021/05/24 05:47:58;;;;;;;2.00;1.90;;;;;;;28.64;35.01;99355.72;5112337;28;20363;-80
2021/05/24 05:50:24;;;;;;;2.50;2.03;;;;;;;28.56;35.17;99357.69;5113937;28;20031;-80
2021/05/24 05:52:50;;;;;;;2.08;1.77;;;;;;;28.68;35.80;99347.47;5112251;28;20390;-81
2021/05/24 05:55:15;;;;;;;2.22;1.73;;;;;;;28.74;35.40;99348.69;5112674;28;20035;-78
2021/05/24 05:57:40;;;;;;;4.28;2.17;;;;;;;28.82;35.01;99354.97;5112348;28;20016;-80
2021/05/24 06:00:06;;;;;;;3.33;1.70;;;;;;;28.64;35.44;99355.72;5112423;28;20431;-79
2021/05/24 06:02:32;;;;;;;2.10;1.75;;;;;;;28.66;35.05;99355.31;5112648;28;20559;-79
2021/05/24 06:04:57;;;;;;;3.25;1.83;;;;;;;28.77;35.24;99360.88;5111946;28;20030;-79
2021/05/24 06:07:23;;;;;;;4.93;1.80;;;;;;;28.89;35.24;99364.03;5112121;28;20027;-79
2021/05/24 06:09:48;;;;;;;2.13;1.92;;;;;;;28.97;35.09;99373.06;5112128;28;20033;-79
2021/05/24 06:12:14;;;;;;;3.85;2.28;;;;;;;29.08;34.82;99373.06;5113623;28;20148;-79
2021/05/24 06:14:40;;;;;;;2.22;2.03;;;;;;;29.28;33.82;99372.66;5112087;28;20462;-79
2021/05/24 06:17:05;;;;;;;1.90;1.80;;;;;;;29.24;34.14;99380.94;5112556;28;20473;-79
2021/05/24 06:19:32;;;;;;;3.50;2.05;;;;;;;29.28;33.77;99367.94;5112330;28;20087;-79
2021/05/24 06:21:57;;;;;;;2.92;1.88;;;;;;;29.27;34.31;99371.09;5113185;28;20027;-79
2021/05/24 06:24:23;;;;;;;2.15;1.95;;;;;;;29.20;33.93;99382.91;5111976;28;20019;-79
2021/05/24 06:26:48;;;;;;;3.67;2.22;;;;;;;29.22;34.05;99370.31;5111644;28;20066;-78
2021/05/24 06:29:14;;;;;;;10.65;2.90;;;;;;;29.07;33.94;99372.28;5112013;28;20106;-78
2021/05/24 06:31:42;;;;;;;2.88;2.33;;;;;;;28.96;34.68;99377.00;5111887;28;20055;-78
2021/05/24 06:34:08;;;;;;;4.78;3.15;;;;;;;28.74;35.03;99376.97;5112499;28;20030;-78
2021/05/24 06:36:33;;;;;;;6.85;3.17;;;;;;;28.64;35.44;99386.00;5114371;28;20381;-78
2021/05/24 06:38:59;;;;;;;3.20;2.80;;;;;;;28.46;35.37;99379.66;5114893;28;20076;-78
2021/05/24 06:41:24;;;;;;;3.90;2.60;;;;;;;28.35;35.82;99385.13;5114284;28;20075;-79
2021/05/24 06:43:50;;;;;;;6.70;3.30;;;;;;;28.17;36.12;99380.34;5113644;28;20451;-80
2021/05/24 06:46:15;;;;;;;8.32;2.83;;;;;;;28.01;36.99;99386.16;5114346;28;20115;-80
2021/05/24 06:48:40;;;;;;;2.40;2.20;;;;;;;28.00;37.02;99375.56;5113498;28;20523;-80
2021/05/24 06:51:06;;;;;;;7.47;2.70;;;;;;;27.94;37.48;99384.19;5113441;28;20447;-80
2021/05/24 06:53:31;;;;;;;3.92;2.58;;;;;;;27.87;37.64;99392.38;5112731;28;20026;-80
2021/05/24 06:55:57;;;;;;;2.63;2.42;;;;;;;27.86;37.64;99388.06;5111453;28;20034;-79
2021/05/24 06:58:22;;;;;;;4.18;2.88;;;;;;;27.86;38.07;99399.06;5111341;28;20019;-80
2021/05/24 07:00:48;;;;;;;3.53;2.85;;;;;;;27.79;37.51;99401.75;5111285;28;20378;-79
2021/05/24 07:03:13;;;;;;;4.18;2.83;;;;;;;27.76;38.29;99408.03;5111270;28;20102;-80
2021/05/24 07:05:39;;;;;;;2.45;2.25;;;;;;;27.65;38.19;99407.97;5111222;28;20032;-80
2021/05/24 07:08:04;;;;;;;3.22;2.60;;;;;;;27.53;39.10;99411.81;5111051;28;20023;-79
2021/05/24 07:10:30;;;;;;;4.43;2.25;;;;;;;27.46;39.41;99398.81;5111066;28;20031;-79
2021/05/24 07:12:55;;;;;;;2.33;2.22;;;;;;;27.49;38.66;99411.00;5110873;28;20024;-79
2021/05/24 07:15:21;;;;;;;6.85;2.33;;;;;;;27.45;38.92;99419.22;5110894;28;20386;-78
2021/05/24 07:17:46;;;;;;;3.72;2.25;;;;;;;27.44;39.61;99420.38;5110758;28;20027;-79
2021/05/24 07:20:12;;;;;;;4.25;2.88;;;;;;;27.46;39.73;99420.00;5110775;28;20011;-79
2021/05/24 07:22:37;;;;;;;2.88;2.40;;;;;;;27.41;39.48;99420.34;5110271;28;20402;-79
2021/05/24 07:25:04;;;;;;;4.55;2.60;;;;;;;27.40;39.20;99422.28;5110581;28;20027;-79
2021/05/24 07:27:31;;;;;;;3.07;2.77;;;;;;;27.42;39.38;99427.44;5110682;28;20236;-79
2021/05/24 07:29:56;;;;;;;10.93;3.38;;;;;;;27.41;40.27;99432.13;5110510;28;20055;-79
2021/05/24 07:32:22;;;;;;;3.08;2.70;;;;;;;27.35;40.32;99424.59;5110673;28;20035;-80
2021/05/24 07:34:47;;;;;;;4.85;2.95;;;;;;;27.41;40.01;99425.84;5110457;28;20028;-80
2021/05/24 07:37:12;;;;;;;4.93;2.40;;;;;;;27.36;40.13;99424.22;5110676;28;20026;-79
2021/05/24 07:39:38;;;;;;;2.83;2.53;;;;;;;27.47;39.74;99427.84;5110478;28;20354;-80
2021/05/24 07:42:05;;;;;;;3.05;2.53;;;;;;;27.62;39.98;99434.25;5110272;28;20090;-80
2021/05/24 07:44:33;;;;;;;4.10;2.63;;;;;;;27.74;39.55;99438.63;5110532;28;20033;-79
2021/05/24 07:46:58;;;;;;;;;;;;;;;27.85;39.46;99444.19;5110848;28;20042;-79
2021/05/24 07:49:24;;;;;;;2.92;2.42;;;;;;;27.87;39.32;99450.09;5110662;28;19998;-79
2021/05/24 07:51:50;;;;;;;5.25;3.78;;;;;;;27.88;39.26;99451.69;5111036;28;20443;-80
2021/05/24 07:54:16;;;;;;;4.10;2.55;;;;;;;27.90;39.88;99449.31;5111225;28;20474;-79
2021/05/24 07:56:42;;;;;;;3.33;2.90;;;;;;;27.96;39.45;99450.56;5110662;28;20117;-78
2021/05/24 07:59:08;;;;;;;4.10;3.70;;;;;;;28.00;38.93;99456.03;5110524;28;20371;-78
2021/05/24 08:01:33;;;;;;;3.80;3.40;;;;;;;28.02;38.81;99472.19;5110108;28;20535;-80
2021/05/24 08:03:58;;;;;;;4.28;2.92;;;;;;;28.06;38.50;99470.25;5110093;28;20024;-79
2021/05/24 08:06:24;;;;;;;3.63;2.67;;;;;;;28.06;38.62;99473.81;5109654;28;20023;-80
2021/05/24 08:08:50;;;;;;;3.33;2.53;;;;;;;28.09;38.86;99473.03;5109872;28;20023;-78
2021/05/24 08:11:16;;;;;;;6.07;3.75;;;;;;;28.11;38.46;99473.44;5110182;28;20020;-78
2021/05/24 08:13:42;;;;;;;6.43;2.42;;;;;;;28.17;36.76;99479.34;5110148;28;20130;-78
2021/05/24 08:16:08;;;;;;;2.80;2.08;;;;;;;28.19;37.22;99481.72;5109838;28;20108;-79
2021/05/24 08:18:33;;;;;;;2.17;1.58;;;;;;;28.14;37.67;99476.56;5110080;28;20043;-79
2021/05/24 08:20:59;;;;;;;3.08;2.45;;;;;;;28.16;37.87;99476.97;5109972;28;20034;-79
2021/05/24 08:23:25;;;;;;;3.72;2.30;;;;;;;28.15;37.58;99481.69;5109925;28;20049;-79
2021/05/24 08:25:51;;;;;;;2.75;2.10;;;;;;;28.10;37.65;99479.31;5109286;28;20130;-79
2021/05/24 08:28:17;;;;;;;2.38;1.90;;;;;;;28.18;37.08;99480.91;5110140;28;20051;-78
2021/05/24 08:30:42;;;;;;;2.90;1.95;;;;;;;28.16;36.77;99477.78;5110022;28;20541;-79
2021/05/24 08:33:08;;;;;;;2.53;1.83;;;;;;;28.19;36.89;99477.00;5109707;28;20068;-79
2021/05/24 08:35:34;;;;;;;2.45;1.67;;;;;;;28.23;36.98;99480.53;5110093;28;20292;-79
2021/05/24 08:38:00;;;;;;;3.97;1.95;;;;;;;28.36;37.06;99481.00;5109654;28;20023;-79
2021/05/24 08:40:26;;;;;;;3.58;2.00;;;;;;;28.36;37.35;99475.50;5109769;28;20466;-78
2021/05/24 08:42:55;;;;;;;2.22;1.83;;;;;;;28.46;37.33;99473.97;5109653;28;20090;-78
2021/05/24 08:45:20;;;;;;;2.55;2.00;;;;;;;28.52;36.65;99475.19;5109731;28;20381;-80
2021/05/24 08:47:49;;;;;;;2.03;1.58;;;;;;;28.58;36.56;99470.88;5109792;28;20027;-80
2021/05/24 08:50:15;;;;;;;4.13;1.70;;;;;;;28.69;36.58;99461.91;5109619;28;20026;-80
2021/05/24 08:52:41;;;;;;;4.10;1.90;;;;;;;28.67;36.00;99470.50;5109792;28;20466;-80
2021/05/24 08:55:09;;;;;;;1.65;1.55;;;;;;;28.67;36.38;99458.72;5109458;28;20020;-80
2021/05/24 08:57:38;;;;;;;;;;;;;;;28.70;36.09;99456.00;5110238;28;20019;-79
2021/05/24 09:00:06;;;;;;;2.00;1.60;;;;;;;28.71;36.30;99454.84;5109486;28;20390;-80
2021/05/24 09:02:32;;;;;;;1.75;1.60;;;;;;;28.71;36.00;99451.28;5109934;28;20070;-80
2021/05/24 09:05:04;;;;;;;3.55;2.00;;;;;;;28.66;36.44;99463.44;5109406;28;20478;-80
2021/05/24 09:07:29;;;;;;;3.00;1.95;;;;;;;28.57;35.83;99466.53;5109607;28;20019;-80
2021/05/24 09:10:01;;;;;;;3.65;2.30;;;;;;;28.51;35.05;99459.06;5109353;28;20422;-80
2021/05/24 09:12:31;;;;;;;5.00;2.45;;;;;;;28.43;36.68;99459.03;5109607;28;20136;-80
2021/05/24 09:14:59;;;;;;;5.03;1.70;;;;;;;28.41;34.91;99460.59;5109380;28;20032;-80
2021/05/24 09:17:39;;;;;;;2.22;2.03;;;;;;;28.35;35.22;99464.91;5110219;28;20391;-78
2021/05/24 09:20:24;;;;;;;2.63;2.40;;;;;;;28.31;36.53;99456.63;5113028;28;20394;-80
2021/05/24 09:23:28;;;;;;;3.92;1.90;;;;;;;28.39;35.87;99457.44;5112903;28;20474;-80
2021/05/24 09:26:03;;;;;;;5.60;2.13;;;;;;;28.38;36.39;99453.91;5110202;28;20043;-80
2021/05/24 09:28:42;;;;;;;3.92;2.05;;;;;;;28.37;35.47;99446.84;5113077;28;20110;-80
2021/05/24 09:31:26;;;;;;;2.45;1.67;;;;;;;28.46;37.02;99454.72;5112612;28;20107;-80
2021/05/24 09:33:59;;;;;;;5.00;2.00;;;;;;;28.58;36.72;99448.84;5112665;28;20030;-79
2021/05/24 09:36:25;;;;;;;2.15;1.80;;;;;;;28.60;37.50;99446.50;5112873;28;20091;-80
2021/05/24 09:38:58;;;;;;;2.13;1.88;;;;;;;28.66;35.36;99444.19;5112381;28;20394;-81
2021/05/24 09:41:24;;;;;;;3.90;1.70;;;;;;;28.65;36.52;99444.56;5112814;28;20494;-80
2021/05/24 09:43:54;;;;;;;2.20;1.98;;;;;;;28.70;37.34;99438.72;5112573;28;20019;-81
2021/05/24 09:46:28;;;;;;;1.83;1.73;;;;;;;28.77;36.88;99441.47;5112620;28;20042;-81
2021/05/24 09:48:54;;;;;;;2.38;1.52;;;;;;;28.82;36.25;99435.59;5112348;28;20438;-81
2021/05/24 09:51:26;;;;;;;6.70;2.20;;;;;;;28.75;35.36;99430.06;5112526;28;20031;-80
2021/05/24 09:54:06;;;;;;;2.65;2.00;;;;;;;28.80;35.47;99420.66;5112277;28;20123;-80
2021/05/24 09:56:44;;;;;;;6.32;2.75;;;;;;;28.84;35.02;99430.47;5112370;28;20111;-80
2021/05/24 09:59:13;;;;;;;2.05;1.88;;;;;;;28.76;34.11;99417.91;5112141;28;20043;-78
2021/05/24 10:01:43;;;;;;;8.20;2.47;;;;;;;28.72;35.00;99419.84;5114025;28;20039;-78
2021/05/24 10:04:12;;;;;;;4.28;1.98;;;;;;;28.68;35.73;99421.78;5112182;28;20025;-78
2021/05/24 10:06:38;;;;;;;4.80;2.28;;;;;;;28.70;36.00;99422.97;5112168;28;20364;-79
2021/05/24 10:09:06;;;;;;;1.75;1.65;;;;;;;28.70;36.01;99411.19;5111922;28;20077;-80
2021/05/24 10:11:31;;;;;;;3.70;2.00;;;;;;;28.74;36.00;99410.00;5112197;28;20039;-80
2021/05/24 10:13:57;;;;;;;2.33;2.08;;;;;;;28.76;34.30;99412.38;5112058;28;20028;-80
2021/05/24 10:16:27;;;;;;;4.03;2.30;;;;;;;28.71;35.02;99399.00;5112172;28;20355;-80
2021/05/24 10:18:53;;;;;;;5.10;2.17;;;;;;;28.68;34.51;99403.31;5111987;28;20072;-80
2021/05/24 10:21:19;;;;;;;2.53;1.73;;;;;;;28.67;34.72;99401.72;5112133;28;20035;-80
2021/05/24 10:23:44;;;;;;;3.15;1.65;;;;;;;28.66;34.58;99405.66;5112134;28;20031;-80
2021/05/24 10:26:14;;;;;;;5.55;2.88;;;;;;;28.62;34.92;99402.09;5111629;28;20055;-80
2021/05/24 10:28:44;;;;;;;2.75;1.70;;;;;;;28.62;34.81;99415.06;5111574;28;20011;-80
2021/05/24 10:31:36;;;;;;;4.88;1.60;;;;;;;28.62;35.05;99412.31;5111329;28;20026;-79
2021/05/24 10:34:23;;;;;;;3.50;1.80;;;;;;;28.65;36.68;99406.03;5107383;28;20039;-79
2021/05/24 10:37:09;;;;;;;1.98;1.88;;;;;;;28.73;35.76;99399.41;5111862;28;20065;-80
2021/05/24 10:40:01;;;;;;;4.05;2.13;;;;;;;28.73;35.27;99404.91;5111493;28;20027;-80
2021/05/24 10:43:06;;;;;;;2.60;1.80;;;;;;;28.66;36.23;99404.84;5111717;28;20443;-80
2021/05/24 10:45:32;;;;;;;3.53;1.60;;;;;;;28.62;36.15;99399.34;5111715;28;20073;-80
2021/05/24 10:47:59;;;;;;;7.10;2.30;;;;;;;28.59;35.94;99392.66;5111482;28;20024;-80
2021/05/24 10:50:29;;;;;;;1.92;1.83;;;;;;;28.57;36.20;99391.47;5111807;28;20015;-80
2021/05/24 10:53:00;;;;;;;6.88;2.50;;;;;;;28.58;36.10;99393.06;5111305;28;20059;-80
2021/05/24 10:55:26;;;;;;;2.70;1.77;;;;;;;28.67;36.01;99396.19;5111380;28;20048;-80
2021/05/24 10:58:19;;;;;;;3.63;2.30;;;;;;;28.64;35.36;99393.44;5112859;28;20422;-80
2021/05/24 11:01:00;;;;;;;2.33;2.13;;;;;;;28.62;36.03;99388.34;5108505;28;20061;-79
2021/05/24 11:03:26;;;;;;;2.65;2.10;;;;;;;28.61;36.39;99392.25;5111348;28;20027;-80
2021/05/24 11:06:13;;;;;;;6.00;1.90;;;;;;;28.67;36.01;99376.16;5111276;28;20114;-80
2021/05/24 11:08:42;;;;;;;3.37;2.20;;;;;;;28.73;36.50;99383.69;5111280;28;20054;-80
2021/05/24 11:11:18;;;;;;;5.03;2.28;;;;;;;28.84;36.44;99383.69;5110970;28;20111;-79
2021/05/24 11:13:55;;;;;;;2.10;1.77;;;;;;;28.94;35.47;99386.84;5111110;28;20024;-79
2021/05/24 11:16:21;;;;;;;3.75;1.83;;;;;;;28.87;34.56;99382.13;5111192;28;20024;-80
2021/05/24 11:18:46;;;;;;;3.20;1.85;;;;;;;28.92;34.83;99378.97;5111110;28;20028;-80
2021/05/24 11:21:16;;;;;;;2.80;2.08;;;;;;;28.88;34.31;99380.94;5112111;28;20389;-80
2021/05/24 11:26:41;;;;;;;2.53;2.08;;;;;;;28.72;35.38;99387.63;5112102;28;20421;-80
2021/05/24 11:29:07;;;;;;;2.80;2.35;;;;;;;28.65;35.38;99375.75;5111557;28;20035;-80
2021/05/24 11:31:39;;;;;;;2.00;1.90;;;;;;;28.73;36.74;99375.44;5110852;28;20084;-80
2021/05/24 11:34:35;;;;;;;2.63;2.42;;;;;;;28.80;38.21;99377.38;5110567;28;20089;-79
2021/05/24 11:37:06;;;;;;;2.50;2.30;;;;;;;28.84;38.43;99383.69;5110364;28;20397;-79
2021/05/24 11:39:34;;;;;;;3.83;2.38;;;;;;;28.78;35.57;99378.97;5110623;28;20051;-79